Fallon Naval Air Station, Van Voorhis Field Fallon US
ICAO: KNFL
IATA: NFL
Category: Medium
Scheduled Services: No

Elevation: 3934 ft
TransAlt. 18000 ft.

Airport Communications:
NAVY FALLON APP/DEP:120.85
ATIS:37.092
CLNC DEL:35.355
GND:25.115
DESERT CON:126.2
BASE OPS:23.8
PMSV METRO:32.74
NAVY FALLON TWR:119.25

KNFL Zoom In..

Runways:

(A) RW 07 length 7003 ft width 154 ft
---- / hdg 73

(B) RW 13L length 11080 ft width 200 ft
---- / hdg 131

(C) RW 13R length 14005 ft width 201 ft
---- / hdg 131

(D) RW 25 length 7003 ft width 154 ft
---- / hdg 253

(E) RW 31L length 14005 ft width 201 ft
---- / hdg 311

(F) RW 31R length 11080 ft width 200 ft
---- / hdg 311

Location; KNFL
Day. 20 / Time. 19.56 Zulu
* Altimeter: 30.02
* Temperature: 35° c. 95°f.
* Wind from: 290° Speed 05 kn.
Dewpoint: 07° c.
Visibility: 5 Statute Miles.
Clouds: Broken 16000 ft.
Clouds: Broken 2000 ft.
Conditions: Smoke.Conditions: Smoke.

KNFL 201956Z 29005KT 5SM FU BKN160 BKN200 35/07 A3002 RMK AO2 SLP135 FU VC ALQDS T03500072


Wind From 290°
Speed 05 kn.

 
 
jpsmedia.com for Web Design worldairports.se 2018   terms of use